Flugplatz Eggersdorf

Für EDCE sind keine METAR/TAF Berichte vorhanden.
Es werden die Flugwettermeldungen vom Flugplatz Berlin-Schönefeld International in 39 km Entfernung angezeigt.

Bericht für EDDB

vom 25.10. um 17:20 UTC

Wind 5 kt aus 180°

Sichtweite 10 km oder mehr

gute Sicht, keine Wolken < 5000 ft, keine CB, keine Wettererscheinungen (CAVOK)

Temperatur 7.0°C

Taupunkt 5.0°C

Luftfeuchtigkeit 87%

Luftdruck 1019 hPa

keine wesentliche Wetteränderung innerhalb den nächsten 2 Stunden zu erwarten

EDDB 251720Z 18005KT CAVOK 07/05 Q1019 NOSIG

Prognose für EDDB

vom 25.10. um 11:00 UTC

Zwischen 12:00 UTC und 13:00 UTC

Wind 10 kt aus 190°

Sichtweite 10 km oder mehr

keine signifikanten Wettererscheinungen

keine Wolken


Zwischen 13:00 und 16:00 UTC übergehend zu

Wind 5 kt aus 190°

Sichtweite 10 km oder mehr

keine signifikanten Wettererscheinungen

keine Wolken


Am 26.10. zwischen 08:00 und 11:00 UTC übergehend zu

Wind 8 kt aus 270°

Sichtweite 10 km oder mehr

keine signifikanten Wettererscheinungen

keine Wolken

TAF EDDB 251100Z 2512/2612 19010KT CAVOK BECMG 2513/2516 19005KT BECMG 2608/2611 27008KT
Impressum